KORF/ORF METAR and TAF weather

Enter ICAO airport designator
Station Type Date Time Source
KORF METAR 2021/09/25 02:51 UTC NOAA

KORF 250251Z 02010KT 10SM CLR 20/11 A3007 RMK AO2 SLP181 T02000111 51004


Station Type Date Time Source
KORF Decoded METAR 2021/09/25 02:51 UTC NOAA

NORFOLK INTERNATIONAL AIRPORT , VA, United States (KORF) 36-54N 076-12W 14M
Sep 24, 2021 - 10:51 PM EDT / 2021.09.25 0251 UTC
Wind: from the NNE (020 degrees) at 12 MPH (10 KT):0
Visibility: 10 mile(s):0
Sky conditions: clear
Temperature: 68.0 F (20.0 C)
Dew Point: 52.0 F (11.1 C)
Relative Humidity: 56%
Pressure (altimeter): 30.07 in. Hg (1018 hPa)
Pressure tendency: 0.01 inches (0.4 hPa) higher than three hours ago
ob: KORF 250251Z 02010KT 10SM CLR 20/11 A3007 RMK AO2 SLP181 T02000111 51004
cycle: 3

Station Type Date Time Source
KORF TAF 2021/09/24 20:59 UTC NOAA

TAF
AMD KORF 241959Z 2420/2518 02012KT P6SM FEW050
FM242200 03007KT P6SM SKC

Example: see airport list